KPVJ

Pauls Valley Municipal Airport

Pauls Valley, Oklahoma, USA
METAR KPVJ 202355Z AUTO 31009G15KT 10SM CLR 27/17 A2998 RMK AO2 T02730173 10286 20260
Observed Flight Rules
Aug-20 @ 23:55 UTC (14 minutes ago) Visual Flight Rules
Wind Visibility Clouds
310° at 9 knots
 Gusting to 15 knots
10 miles
  • Clear skies
Temperatures Readings
Current 27°C / 81°F
Dewpoint 17°C / 63°F
Humidity 54%
Altimeter 29.98" Hg
Pressure 1015 hPa
Elevation 295
METAR KPVJ 202355Z AUTO 31009G15KT 10SM CLR 27/17 A2998 RMK AO2 T02730173 10286 20260
Observed Flight Rules
Aug-20 @ 23:55 UTC
(14 minutes ago)
VFR
Wind Visibility
310° at 9 knots
 Gusting to 15 knots
10 miles
Clouds
  • Clear skies
Temperature Dewpoint
27°C / 81°F 17°C / 63°F
Humidity Altimeter Pressure
54% 29.98" Hg 1015 hPa